West Middleton, Indiana
Current Conditions -  °F | °C
As of 12:35 PM on Thursday 23 Oct 2014 (Local Time) from KOKK Reporting Station
Clear Clear  
Wind Chill: 55°   Ceiling: Unl
Heat Index: 55°   Visibility: 10mi
Dew Point: 43°   Wind: 3mph
Humidity: 63%   Direction: 320°NW
Pressure: 30.24"   Gusts: NA
Location:  40.44°N, 86.22°W
Report Text: KOKK 231635Z AUTO 32003KT 10SM CLR 13/06 A3024 RMK AO1
Loading
Personal Weather Stations






























Interactive Weather Map
Tropical Storm Tracking
New forecast layout! Learn more

10-Day Weather Forecast

Advertisements
Track Severe Weather on mobile